Crater Lake National Park, OR

12:02 AM PST on November 24, 2014 (GMT -0800)
Klamath Agency on Wood River Canal | Change Station
CLOSE
Current Station
Personal Weather Station
Location: Chiloquin, OR
Elevation: 4170 ft
Nearby Weather Stations

Elev 4170 ft 42.58 °N, 121.93 °W | Updated 2 minutes ago

Clear
Clear
23.7 °F
Feels Like 24 °F
N
0.0
Wind Variable Wind from ENE
Gusts 16.0 mph

Today
High -- | Low -- °F
--% Chance of Precip.
Yesterday
High -- | Low -- °F
Precip. -- in
7:09 AM 4:38 PM
Waxing Crescent, 4% visible
Pressure 30.42 in
Visibility 9.0 miles
Clouds Clear
Windchill 24 °F
Dew Point 23 °F
Humidity 96%
Rainfall 0.23 in
Snow Depth Not available.
UV 0 out of 12
Pollen .30 out of 12
Air Quality Not available.
Flu Activity Not available.
METAR KLMT 240753Z AUTO 00000KT 9SM CLR M04/M06 A3037 RMK AO2 SLP300 I1001 T10391056 400561044

More Conditions Fewer Conditions

Pressure 30.42 in
Visibility 9.0 miles
Clouds Clear
Windchill 24 °F
Dew Point 23 °F
Humidity 96%
Rainfall 0.23 in
Snow Depth Not available.
UV 0 out of 12
Pollen .30 out of 12
Air Quality Not available.
Flu Activity Not available.
METAR KLMT 240753Z AUTO 00000KT 9SM CLR M04/M06 A3037 RMK AO2 SLP300 I1001 T10391056 400561044

More Conditions Fewer Conditions

10-Day Weather Forecast

Almanac

Astronomy

Nov. 24, 2014 Rise Set
Actual Time
Civil Twilight
Nautical Twilight
Astronomical Twilight
Moon
Length of Visible Light
Length of Day
Tomorrow will be .
, % of the Moon is Illuminated

Today's Extremes

State Highs State Lows

Community

WunderPhotos

Upload Photos

1,773,295 photos uploaded!

WunderBlogs® & News

Nearby

Air Quality

  Air Quality AQ Index Pollutant
Not available.

Snow Depth

Station Depth Elevation

Earthquake Activity

City Distance Mag. Time & Date
Minimum magnitude displayed is 2.5.

Coastal Water Temperatures

Place Temperature

Nearby Weather Stations